Maran Castor — SXLH — position and weather

sailwx.info

Track history (hours):
 
Tides and Currents Weather Stations Pressure Air Temp Water Temp Dewpoint Dewpoint Depression Visibility Wind Speed Wind Dir Waves Ship Positions

Maran Castor

Last reported at 2016-Apr-24 11:33 UTC. Time now 2016-May-03 20:04 UTC.
Position N 01°56' E 102°17'.
Warning: this ship's position is 9 days out of date.

Length 332 m; draft 11.3 m.

Type: Tanker. MMSI: 239808000.

Date/timePositionNaut miles runAvg speedWind from/ knotsBaromVisibWave heightAir tempDewpointWater temp
2016-Apr-24 11:33N 01°56' E 102°17'1211.7
2016-Apr-24 10:33N 01°51' E 102°27'1312.8
2016-Apr-24 09:33N 01°46' E 102°39'6012.0
2016-Apr-24 04:33N 01°13' E 103°29'1111.0
2016-Apr-24 03:33N 01°11' E 103°40'1111.1
2016-Apr-24 02:33N 01°12' E 103°51'4 3.4
2016-Apr-24 01:19N 01°15' E 103°54'0 0.1
2016-Apr-24 00:10N 01°15' E 103°54'0 0.1
2016-Apr-23 23:22N 01°15' E 103°54'0 0.0
2016-Apr-23 21:16N 01°15' E 103°54'0 0.0
2016-Apr-23 20:28N 01°15' E 103°54'0 0.0
2016-Apr-23 19:28N 01°15' E 103°54'0 0.0
2016-Apr-23 18:31N 01°15' E 103°54'0 0.2
2016-Apr-23 17:22N 01°15' E 103°54'0 0.2
2016-Apr-23 16:28N 01°14' E 103°54'0 0.1
2016-Apr-23 15:28N 01°14' E 103°54'0 0.0
2016-Apr-23 14:25N 01°14' E 103°54'0 0.1
2016-Apr-23 13:31N 01°14' E 103°54'0 0.1
2016-Apr-23 12:31N 01°14' E 103°54'0 0.0
2016-Apr-23 11:28N 01°14' E 103°54'0 0.1
2016-Apr-23 10:16N 01°14' E 103°54'0 0.0
2016-Apr-23 09:19N 01°14' E 103°54'0 0.1
2016-Apr-23 08:28N 01°14' E 103°54'0 0.1
2016-Apr-23 07:10N 01°14' E 103°54'0 0.0
2016-Apr-23 06:28N 01°14' E 103°54'0 0.1
2016-Apr-23 05:33N 01°14' E 103°54'5 4.5
2016-Apr-23 04:32N 01°16' E 103°58'4 4.0
2016-Apr-23 03:31N 01°16' E 104°02'3 3.0
2016-Apr-23 02:33N 01°17' E 104°05'  
2016-Apr-18 12:30N 22°26' E 120°13'6 0.3
2016-Apr-17 18:30N 22°30' E 120°17'0 0.0
2016-Apr-17 17:31N 22°30' E 120°17'0 0.1
2016-Apr-17 16:31N 22°30' E 120°17'0 0.0
2016-Apr-17 15:31N 22°30' E 120°17'0 0.1
2016-Apr-17 14:07N 22°30' E 120°17'0 0.1
2016-Apr-17 12:25N 22°30' E 120°17'0 0.0
2016-Apr-17 11:25N 22°30' E 120°17'0 0.0
2016-Apr-17 10:25N 22°30' E 120°17'0 0.0
2016-Apr-17 09:31N 22°30' E 120°17'0 0.1
2016-Apr-17 08:31N 22°30' E 120°17'1 0.2
2016-Apr-17 03:21N 22°29' E 120°16'1 1.5
2016-Apr-17 02:33N 22°29' E 120°15'0 0.1
2016-Apr-17 01:24N 22°29' E 120°15'14 2.7
2016-Apr-16 20:21N 22°40' E 120°06'910.5
2016-Apr-16 19:31N 22°48' E 120°02'  
Track history (hours):
 
Tides and Currents Weather Stations Pressure Air Temp Water Temp Dewpoint Dewpoint Depression Visibility Wind Speed Wind Dir Waves Ship Positions

Maran Castor

Last reported at 2016-Apr-24 11:33 UTC. Time now 2016-May-03 20:04 UTC.
Position N 01°56' E 102°17'.
Warning: this ship's position is 9 days out of date.

Length 332 m; draft 11.3 m.

Type: Tanker. MMSI: 239808000.

Date/timePositionNaut miles runAvg speedWind from/ knotsBaromVisibWave heightAir tempDewpointWater temp
2016-Apr-24 11:33N 01°56' E 102°17'1211.7
2016-Apr-24 10:33N 01°51' E 102°27'1312.8
2016-Apr-24 09:33N 01°46' E 102°39'6012.0
2016-Apr-24 04:33N 01°13' E 103°29'1111.0
2016-Apr-24 03:33N 01°11' E 103°40'1111.1
2016-Apr-24 02:33N 01°12' E 103°51'4 3.4
2016-Apr-24 01:19N 01°15' E 103°54'0 0.1
2016-Apr-24 00:10N 01°15' E 103°54'0 0.1
2016-Apr-23 23:22N 01°15' E 103°54'0 0.0
2016-Apr-23 21:16N 01°15' E 103°54'0 0.0
2016-Apr-23 20:28N 01°15' E 103°54'0 0.0
2016-Apr-23 19:28N 01°15' E 103°54'0 0.0
2016-Apr-23 18:31N 01°15' E 103°54'0 0.2
2016-Apr-23 17:22N 01°15' E 103°54'0 0.2
2016-Apr-23 16:28N 01°14' E 103°54'0 0.1
2016-Apr-23 15:28N 01°14' E 103°54'0 0.0
2016-Apr-23 14:25N 01°14' E 103°54'0 0.1
2016-Apr-23 13:31N 01°14' E 103°54'0 0.1
2016-Apr-23 12:31N 01°14' E 103°54'0 0.0
2016-Apr-23 11:28N 01°14' E 103°54'0 0.1
2016-Apr-23 10:16N 01°14' E 103°54'0 0.0
2016-Apr-23 09:19N 01°14' E 103°54'0 0.1
2016-Apr-23 08:28N 01°14' E 103°54'0 0.1
2016-Apr-23 07:10N 01°14' E 103°54'0 0.0
2016-Apr-23 06:28N 01°14' E 103°54'0 0.1
2016-Apr-23 05:33N 01°14' E 103°54'5 4.5
2016-Apr-23 04:32N 01°16' E 103°58'4 4.0
2016-Apr-23 03:31N 01°16' E 104°02'3 3.0
2016-Apr-23 02:33N 01°17' E 104°05'  
2016-Apr-18 12:30N 22°26' E 120°13'6 0.3
2016-Apr-17 18:30N 22°30' E 120°17'0 0.0
2016-Apr-17 17:31N 22°30' E 120°17'0 0.1
2016-Apr-17 16:31N 22°30' E 120°17'0 0.0
2016-Apr-17 15:31N 22°30' E 120°17'0 0.1
2016-Apr-17 14:07N 22°30' E 120°17'0 0.1
2016-Apr-17 12:25N 22°30' E 120°17'0 0.0
2016-Apr-17 11:25N 22°30' E 120°17'0 0.0
2016-Apr-17 10:25N 22°30' E 120°17'0 0.0
2016-Apr-17 09:31N 22°30' E 120°17'0 0.1
2016-Apr-17 08:31N 22°30' E 120°17'1 0.2
2016-Apr-17 03:21N 22°29' E 120°16'1 1.5
2016-Apr-17 02:33N 22°29' E 120°15'0 0.1
2016-Apr-17 01:24N 22°29' E 120°15'14 2.7
2016-Apr-16 20:21N 22°40' E 120°06'910.5
2016-Apr-16 19:31N 22°48' E 120°02'  

Dump ship's entire track history